Time;durP1;ratioP1;P1;durP2;ratioP2;P2;SDS_P1;SDS_P2;PMS_P1;PMS_P2;Temp;Humidity;BMP_temperature;BMP_pressure;BME280_temperature;BME280_humidity;BME280_pressure;Samples;Min_cycle;Max_cycle;Signal;HPM_P1;HPM_P2
2022/12/23 18:07:14;;;;;;;1.73;1.63;;;11.80;99.90;;;;;;5092310;27;20919;-62
2022/12/23 18:09:41;;;;;;;4.03;1.40;;;11.80;99.90;;;;;;5091962;28;20445;-61
2022/12/23 18:12:19;;;;;;;2.33;1.60;;;12.00;99.90;;;;;;5091630;28;20827;-61
2022/12/23 18:14:45;;;;;;;1.43;1.20;;;12.20;99.90;;;;;;5091735;28;20434;-61
2022/12/23 18:17:14;;;;;;;1.07;1.07;;;12.30;99.90;;;;;;5091575;28;20445;-61
2022/12/23 18:19:41;;;;;;;4.80;1.87;;;12.50;99.90;;;;;;5091441;28;20430;-62
2022/12/23 18:22:16;;;;;;;1.37;1.30;;;12.60;99.90;;;;;;5091603;28;20469;-61
2022/12/23 18:24:43;;;;;;;1.17;0.97;;;12.80;99.90;;;;;;5097941;28;20781;-62
2022/12/23 18:27:13;;;;;;;1.43;1.10;;;13.00;99.90;;;;;;5097129;28;20480;-61
2022/12/23 18:29:39;;;;;;;1.17;1.00;;;13.20;99.90;;;;;;5095312;28;20507;-62
2022/12/23 18:32:06;;;;;;;1.23;1.23;;;13.30;99.90;;;;;;5093769;28;20986;-62
2022/12/23 18:34:33;;;;;;;0.90;0.90;;;13.40;99.90;;;;;;5094195;28;20506;-62
2022/12/23 18:36:59;;;;;;;0.93;0.93;;;13.50;99.90;;;;;;5096317;28;20445;-62
2022/12/23 18:39:27;;;;;;;0.93;0.80;;;13.50;99.90;;;;;;5097051;28;20453;-62
2022/12/23 18:41:54;;;;;;;0.80;0.80;;;13.50;99.90;;;;;;5092740;28;20610;-63
2022/12/23 18:44:21;;;;;;;1.50;1.03;;;13.50;99.90;;;;;;5091896;28;20453;-62
2022/12/23 18:46:48;;;;;;;1.90;1.20;;;13.60;99.90;;;;;;5092808;28;20477;-61
2022/12/23 18:49:14;;;;;;;2.70;1.10;;;13.60;99.90;;;;;;5092086;28;20446;-61
2022/12/23 18:51:41;;;;;;;1.13;1.00;;;13.60;99.90;;;;;;5091630;28;20477;-63
2022/12/23 18:54:12;;;;;;;1.40;1.30;;;13.60;99.90;;;;;;5091507;28;20433;-62
2022/12/23 18:56:40;;;;;;;1.07;0.90;;;13.60;99.90;;;;;;5090995;28;20438;-63
2022/12/23 18:59:14;;;;;;;1.20;1.03;;;13.60;99.90;;;;;;5090911;28;20449;-64
2022/12/23 19:01:41;;;;;;;1.37;1.33;;;13.60;99.90;;;;;;5090401;28;20496;-62
2022/12/23 19:04:08;;;;;;;1.40;1.10;;;13.60;99.90;;;;;;5090859;28;20458;-62
2022/12/23 19:06:34;;;;;;;1.07;1.07;;;13.60;99.90;;;;;;5090500;28;20564;-62
2022/12/23 19:09:01;;;;;;;1.73;1.60;;;13.70;99.90;;;;;;5091148;28;20453;-62
2022/12/23 19:11:28;;;;;;;5.07;1.47;;;13.70;99.90;;;;;;5090466;28;20448;-62
2022/12/23 19:13:56;;;;;;;0.83;0.83;;;13.70;99.90;;;;;;5092287;28;20449;-61
2022/12/23 19:16:23;;;;;;;1.00;1.00;;;13.70;99.90;;;;;;5090527;28;20445;-62
2022/12/23 19:18:50;;;;;;;0.83;0.83;;;13.70;99.90;;;;;;5076792;28;20465;-62
2022/12/23 19:21:19;;;;;;;0.80;0.80;;;13.80;99.90;;;;;;5077155;28;20461;-62
2022/12/23 19:23:46;;;;;;;0.87;0.87;;;13.80;99.90;;;;;;5077510;28;20450;-61
2022/12/23 19:26:14;;;;;;;1.07;1.03;;;13.80;99.90;;;;;;5079593;28;20496;-61
2022/12/23 19:28:41;;;;;;;0.83;0.83;;;13.80;99.90;;;;;;5085304;28;20450;-62
2022/12/23 19:31:11;;;;;;;1.10;1.10;;;13.80;99.90;;;;;;5087804;28;20449;-62
2022/12/23 19:33:38;;;;;;;1.33;0.97;;;13.90;99.90;;;;;;5087918;28;20462;-62
2022/12/23 19:36:09;;;;;;;1.47;0.93;;;13.90;99.90;;;;;;5081266;28;20443;-65
2022/12/23 19:38:36;;;;;;;0.80;0.80;;;13.90;99.90;;;;;;5077613;28;20473;-61
2022/12/23 19:41:02;;;;;;;1.43;1.00;;;13.90;99.90;;;;;;5076797;28;20480;-62
2022/12/23 19:43:29;;;;;;;1.00;0.90;;;13.90;99.90;;;;;;5076396;28;20875;-62
2022/12/23 19:45:57;;;;;;;0.90;0.90;;;13.90;99.90;;;;;;5076232;28;20469;-62
2022/12/23 19:48:26;;;;;;;2.87;2.60;;;13.80;99.90;;;;;;5076094;28;20541;-61
2022/12/23 19:50:56;;;;;;;1.67;1.63;;;13.80;99.90;;;;;;5076237;28;20454;-61
2022/12/23 19:53:23;;;;;;;1.27;1.17;;;13.80;99.90;;;;;;5076090;28;20569;-61
2022/12/23 19:55:56;;;;;;;1.00;1.00;;;13.80;99.90;;;;;;5076183;28;20439;-62
2022/12/23 19:58:23;;;;;;;1.30;1.20;;;13.80;99.90;;;;;;5076120;28;20829;-61
2022/12/23 20:00:49;;;;;;;1.90;1.20;;;13.80;99.90;;;;;;5075596;28;20818;-62
2022/12/23 20:03:16;;;;;;;1.37;0.90;;;13.80;99.90;;;;;;5076007;28;20474;-62
2022/12/23 20:05:49;;;;;;;1.00;1.00;;;13.80;99.90;;;;;;5075792;28;20478;-62
2022/12/23 20:08:16;;;;;;;1.87;1.33;;;13.80;99.90;;;;;;5075928;28;20465;-63
2022/12/23 20:10:42;;;;;;;1.17;1.07;;;13.80;99.90;;;;;;5075763;28;20486;-62
2022/12/23 20:13:09;;;;;;;0.90;0.90;;;13.70;99.90;;;;;;5075763;28;20482;-63
2022/12/23 20:15:36;;;;;;;0.97;0.97;;;13.60;99.90;;;;;;5075900;28;20458;-62
2022/12/23 20:18:03;;;;;;;0.90;0.90;;;13.60;99.90;;;;;;5075577;28;20450;-63
2022/12/23 20:20:29;;;;;;;1.00;1.00;;;13.50;99.90;;;;;;5075627;28;20879;-63
2022/12/23 20:22:57;;;;;;;1.03;1.00;;;13.50;99.90;;;;;;5075697;28;20474;-63
2022/12/23 20:25:24;;;;;;;1.63;1.20;;;13.50;99.90;;;;;;5076022;28;20484;-62
2022/12/23 20:27:51;;;;;;;1.73;0.83;;;13.50;99.90;;;;;;5076527;28;20466;-64
2022/12/23 20:30:18;;;;;;;2.00;1.50;;;13.50;99.90;;;;;;5075738;28;20454;-65
2022/12/23 20:32:45;;;;;;;1.33;1.10;;;13.50;99.90;;;;;;5080019;28;20470;-65
2022/12/23 20:35:12;;;;;;;1.00;1.00;;;13.50;99.90;;;;;;5081617;28;20511;-63
2022/12/23 20:37:39;;;;;;;0.90;0.90;;;13.50;99.90;;;;;;5081032;28;20461;-63
2022/12/23 20:40:11;;;;;;;1.80;0.87;;;13.40;99.90;;;;;;5081854;28;20478;-63
2022/12/23 20:42:38;;;;;;;6.33;1.53;;;13.40;99.90;;;;;;5080940;28;20465;-63
2022/12/23 20:45:07;;;;;;;1.30;1.10;;;13.40;99.90;;;;;;5079822;28;20546;-63
2022/12/23 20:47:35;;;;;;;1.83;1.00;;;13.50;99.90;;;;;;5080418;28;20485;-63
2022/12/23 20:50:01;;;;;;;1.40;1.30;;;13.40;99.90;;;;;;5079706;28;20933;-63
2022/12/23 20:52:29;;;;;;;3.80;1.07;;;13.30;99.90;;;;;;5080607;28;20470;-61
2022/12/23 20:54:56;;;;;;;1.80;1.70;;;13.30;99.90;;;;;;5081600;28;20508;-62
2022/12/23 20:57:25;;;;;;;2.70;1.57;;;13.30;99.90;;;;;;5081971;28;20538;-62
2022/12/23 20:59:51;;;;;;;4.93;2.20;;;13.20;99.90;;;;;;5081181;28;20471;-62
2022/12/23 21:02:19;;;;;;;4.00;1.50;;;13.20;99.90;;;;;;5081442;28;20533;-61
2022/12/23 21:04:46;;;;;;;1.50;1.40;;;13.20;99.90;;;;;;5081085;28;20453;-61
2022/12/23 21:07:13;;;;;;;5.90;1.20;;;13.10;99.90;;;;;;5080689;28;20478;-62
2022/12/23 21:09:41;;;;;;;1.10;1.03;;;13.10;99.90;;;;;;5081504;28;20453;-61
2022/12/23 21:12:08;;;;;;;1.60;1.20;;;13.10;99.90;;;;;;5079949;28;20610;-64
2022/12/23 21:14:37;;;;;;;1.00;1.00;;;13.10;99.90;;;;;;5079567;28;20461;-63
2022/12/23 21:17:04;;;;;;;1.40;1.30;;;13.10;99.90;;;;;;5080209;28;20473;-63
2022/12/23 21:19:30;;;;;;;2.43;1.60;;;13.00;99.90;;;;;;5079519;28;20484;-62
2022/12/23 21:21:57;;;;;;;1.60;1.50;;;13.00;99.90;;;;;;5080211;28;20481;-62
2022/12/23 21:24:24;;;;;;;1.30;1.30;;;13.10;99.90;;;;;;5077762;28;20446;-63
2022/12/23 21:26:52;;;;;;;1.40;1.27;;;13.10;99.90;;;;;;5079973;28;21054;-62
2022/12/23 21:29:20;;;;;;;2.30;1.30;;;13.10;99.90;;;;;;5079639;28;20473;-62
2022/12/23 21:31:48;;;;;;;1.90;1.40;;;13.00;99.90;;;;;;5080230;28;20474;-61
2022/12/23 21:34:16;;;;;;;3.33;1.70;;;13.10;99.90;;;;;;5081801;28;20477;-62
2022/12/23 21:36:43;;;;;;;2.40;2.17;;;13.00;99.90;;;;;;5081578;28;20457;-61
2022/12/23 21:39:14;;;;;;;1.50;1.30;;;13.00;99.90;;;;;;5082068;28;21028;-62
2022/12/23 21:41:42;;;;;;;2.47;1.40;;;13.00;99.90;;;;;;5080431;28;20536;-62
2022/12/23 21:44:10;;;;;;;2.00;1.83;;;13.00;99.90;;;;;;5079145;28;20435;-62
2022/12/23 21:46:36;;;;;;;2.47;1.70;;;13.00;99.90;;;;;;5073724;28;20470;-62
2022/12/23 21:49:04;;;;;;;7.10;1.73;;;13.00;99.90;;;;;;5074079;28;20450;-62
2022/12/23 21:51:33;;;;;;;3.70;1.80;;;13.00;99.90;;;;;;5074138;28;20457;-62
2022/12/23 21:54:00;;;;;;;7.73;1.50;;;13.00;99.90;;;;;;5074175;28;20454;-62
2022/12/23 21:56:29;;;;;;;6.50;1.73;;;13.00;99.90;;;;;;5074417;28;20441;-62
2022/12/23 21:58:56;;;;;;;3.07;1.60;;;13.00;99.90;;;;;;5074120;28;20507;-62
2022/12/23 22:01:23;;;;;;;5.13;1.97;;;13.00;99.90;;;;;;5073908;28;20507;-61
2022/12/23 22:03:52;;;;;;;5.13;2.23;;;13.00;99.90;;;;;;5054029;28;20852;-61
2022/12/23 22:06:22;;;;;;;5.43;2.80;;;13.00;99.90;;;;;;5054715;28;20465;-61
2022/12/23 22:08:50;;;;;;;5.27;2.00;;;13.00;99.90;;;;;;5058675;28;20448;-61
2022/12/23 22:11:21;;;;;;;4.23;1.80;;;13.00;99.90;;;;;;5058603;28;20922;-63
2022/12/23 22:13:48;;;;;;;6.93;3.27;;;13.00;99.90;;;;;;5058196;28;20797;-62
2022/12/23 22:16:18;;;;;;;4.87;2.23;;;13.00;99.90;;;;;;5060573;28;20446;-62
2022/12/23 22:18:48;;;;;;;2.60;2.37;;;13.00;99.90;;;;;;5064030;28;20542;-61
2022/12/23 22:21:16;;;;;;;4.03;1.40;;;13.10;99.90;;;;;;5064933;28;20825;-60
2022/12/23 22:23:46;;;;;;;6.70;1.90;;;13.10;99.90;;;;;;5060232;28;20471;-62
2022/12/23 22:26:15;;;;;;;2.90;1.40;;;13.10;99.90;;;;;;5060091;28;20458;-62
2022/12/23 22:28:43;;;;;;;5.50;1.90;;;13.10;99.90;;;;;;5059307;28;20489;-62
2022/12/23 22:31:25;;;;;;;2.80;1.50;;;13.10;99.90;;;;;;5060069;28;20458;-62
2022/12/23 22:33:52;;;;;;;5.07;2.30;;;13.20;99.90;;;;;;5061151;28;20435;-61
2022/12/23 22:36:19;;;;;;;6.13;2.00;;;13.30;99.90;;;;;;5062399;28;20451;-61
2022/12/23 22:38:53;;;;;;;6.93;2.20;;;13.50;99.90;;;;;;5058994;28;20451;-61
2022/12/23 22:41:21;;;;;;;7.70;2.03;;;13.60;99.90;;;;;;5059316;28;20459;-61
2022/12/23 22:43:48;;;;;;;5.17;1.90;;;13.80;99.90;;;;;;5060252;28;20867;-62
2022/12/23 22:46:17;;;;;;;3.50;1.40;;;13.90;99.90;;;;;;5059790;28;20481;-62
2022/12/23 22:48:44;;;;;;;4.50;2.33;;;14.10;99.90;;;;;;5059932;28;20451;-61
2022/12/23 22:51:14;;;;;;;2.93;1.67;;;14.20;99.90;;;;;;5059004;28;20455;-61
2022/12/23 22:53:41;;;;;;;4.10;1.97;;;14.30;99.90;;;;;;5062324;28;20467;-61
2022/12/23 22:56:11;;;;;;;3.83;2.20;;;14.50;99.90;;;;;;5063098;28;20451;-61
